sensor_id;sensor_type;location;lat;lon;timestamp;P1;durP1;ratioP1;P2;durP2;ratioP2
45684;SDS011;46836;48.388;16.210;2023-07-20T00:00:06;7.20;;;4.80;;
45684;SDS011;46836;48.388;16.210;2023-07-20T00:02:34;6.50;;;5.33;;
45684;SDS011;46836;48.388;16.210;2023-07-20T00:05:01;6.03;;;5.43;;
45684;SDS011;46836;48.388;16.210;2023-07-20T00:07:28;9.20;;;5.53;;
45684;SDS011;46836;48.388;16.210;2023-07-20T00:09:55;7.13;;;4.80;;
45684;SDS011;46836;48.388;16.210;2023-07-20T00:12:22;7.00;;;5.90;;
45684;SDS011;46836;48.388;16.210;2023-07-20T00:14:50;9.17;;;5.17;;
45684;SDS011;46836;48.388;16.210;2023-07-20T00:17:20;5.83;;;4.90;;
45684;SDS011;46836;48.388;16.210;2023-07-20T00:19:47;5.73;;;5.23;;
45684;SDS011;46836;48.388;16.210;2023-07-20T00:22:14;11.30;;;5.37;;
45684;SDS011;46836;48.388;16.210;2023-07-20T00:24:41;9.47;;;5.53;;
45684;SDS011;46836;48.388;16.210;2023-07-20T00:27:08;6.90;;;6.10;;
45684;SDS011;46836;48.388;16.210;2023-07-20T00:29:35;9.03;;;5.53;;
45684;SDS011;46836;48.388;16.210;2023-07-20T00:32:02;7.07;;;5.97;;
45684;SDS011;46836;48.388;16.210;2023-07-20T00:34:31;6.87;;;5.30;;
45684;SDS011;46836;48.388;16.210;2023-07-20T00:36:59;7.47;;;5.37;;
45684;SDS011;46836;48.388;16.210;2023-07-20T00:39:26;6.03;;;5.43;;
45684;SDS011;46836;48.388;16.210;2023-07-20T00:41:53;6.73;;;5.87;;
45684;SDS011;46836;48.388;16.210;2023-07-20T00:44:21;5.63;;;5.03;;
45684;SDS011;46836;48.388;16.210;2023-07-20T00:46:48;6.73;;;5.77;;
45684;SDS011;46836;48.388;16.210;2023-07-20T00:49:16;6.97;;;6.23;;
45684;SDS011;46836;48.388;16.210;2023-07-20T00:51:43;10.90;;;6.20;;
45684;SDS011;46836;48.388;16.210;2023-07-20T00:54:10;5.77;;;5.13;;
45684;SDS011;46836;48.388;16.210;2023-07-20T00:56:37;8.10;;;6.07;;
45684;SDS011;46836;48.388;16.210;2023-07-20T00:59:05;7.07;;;5.87;;
45684;SDS011;46836;48.388;16.210;2023-07-20T01:01:32;6.93;;;5.73;;
45684;SDS011;46836;48.388;16.210;2023-07-20T01:04:00;7.30;;;6.23;;
45684;SDS011;46836;48.388;16.210;2023-07-20T01:09:44;8.87;;;5.97;;
45684;SDS011;46836;48.388;16.210;2023-07-20T01:12:13;7.07;;;6.37;;
45684;SDS011;46836;48.388;16.210;2023-07-20T01:14:51;8.30;;;7.10;;
45684;SDS011;46836;48.388;16.210;2023-07-20T01:17:19;9.97;;;5.90;;
45684;SDS011;46836;48.388;16.210;2023-07-20T01:19:46;10.07;;;6.20;;
45684;SDS011;46836;48.388;16.210;2023-07-20T01:22:21;11.00;;;6.37;;
45684;SDS011;46836;48.388;16.210;2023-07-20T01:25:21;6.83;;;6.17;;
45684;SDS011;46836;48.388;16.210;2023-07-20T01:27:57;8.07;;;6.50;;
45684;SDS011;46836;48.388;16.210;2023-07-20T01:34:00;7.07;;;6.00;;
45684;SDS011;46836;48.388;16.210;2023-07-20T01:36:30;7.27;;;6.67;;
45684;SDS011;46836;48.388;16.210;2023-07-20T01:39:00;9.80;;;6.40;;
45684;SDS011;46836;48.388;16.210;2023-07-20T01:41:28;7.83;;;6.97;;
45684;SDS011;46836;48.388;16.210;2023-07-20T01:43:57;8.03;;;5.73;;
45684;SDS011;46836;48.388;16.210;2023-07-20T01:46:25;9.90;;;5.90;;
45684;SDS011;46836;48.388;16.210;2023-07-20T01:48:53;8.13;;;6.60;;
45684;SDS011;46836;48.388;16.210;2023-07-20T01:51:21;7.23;;;5.73;;
45684;SDS011;46836;48.388;16.210;2023-07-20T01:53:48;7.57;;;6.13;;
45684;SDS011;46836;48.388;16.210;2023-07-20T01:56:15;6.57;;;5.90;;
45684;SDS011;46836;48.388;16.210;2023-07-20T01:58:42;8.57;;;6.20;;
45684;SDS011;46836;48.388;16.210;2023-07-20T02:01:10;6.90;;;6.07;;
45684;SDS011;46836;48.388;16.210;2023-07-20T02:03:37;7.70;;;6.00;;
45684;SDS011;46836;48.388;16.210;2023-07-20T02:06:04;11.37;;;7.10;;
45684;SDS011;46836;48.388;16.210;2023-07-20T02:08:31;7.60;;;6.80;;
45684;SDS011;46836;48.388;16.210;2023-07-20T02:10:58;7.13;;;6.40;;
45684;SDS011;46836;48.388;16.210;2023-07-20T02:13:25;7.30;;;6.30;;
45684;SDS011;46836;48.388;16.210;2023-07-20T02:15:52;8.20;;;6.40;;
45684;SDS011;46836;48.388;16.210;2023-07-20T02:18:19;7.50;;;6.20;;
45684;SDS011;46836;48.388;16.210;2023-07-20T02:20:46;7.87;;;6.80;;
45684;SDS011;46836;48.388;16.210;2023-07-20T02:23:13;10.37;;;6.27;;
45684;SDS011;46836;48.388;16.210;2023-07-20T02:25:40;11.17;;;6.93;;
45684;SDS011;46836;48.388;16.210;2023-07-20T02:28:08;7.67;;;5.73;;
45684;SDS011;46836;48.388;16.210;2023-07-20T02:30:37;6.63;;;6.03;;
45684;SDS011;46836;48.388;16.210;2023-07-20T02:33:05;11.90;;;6.60;;
45684;SDS011;46836;48.388;16.210;2023-07-20T02:35:33;7.73;;;6.17;;
45684;SDS011;46836;48.388;16.210;2023-07-20T02:38:00;6.57;;;5.87;;
45684;SDS011;46836;48.388;16.210;2023-07-20T02:40:27;6.70;;;6.10;;
45684;SDS011;46836;48.388;16.210;2023-07-20T02:42:54;11.53;;;6.80;;
45684;SDS011;46836;48.388;16.210;2023-07-20T02:45:21;7.87;;;7.00;;
45684;SDS011;46836;48.388;16.210;2023-07-20T02:47:48;7.80;;;7.00;;
45684;SDS011;46836;48.388;16.210;2023-07-20T02:50:16;7.70;;;6.17;;
45684;SDS011;46836;48.388;16.210;2023-07-20T02:52:43;7.67;;;6.30;;
45684;SDS011;46836;48.388;16.210;2023-07-20T02:55:10;7.60;;;6.43;;
45684;SDS011;46836;48.388;16.210;2023-07-20T02:57:37;9.80;;;6.30;;
45684;SDS011;46836;48.388;16.210;2023-07-20T03:00:04;9.07;;;6.60;;
45684;SDS011;46836;48.388;16.210;2023-07-20T03:02:33;9.73;;;6.97;;
45684;SDS011;46836;48.388;16.210;2023-07-20T03:05:00;8.33;;;6.70;;
45684;SDS011;46836;48.388;16.210;2023-07-20T03:07:29;9.03;;;5.93;;
45684;SDS011;46836;48.388;16.210;2023-07-20T03:09:56;8.50;;;6.57;;
45684;SDS011;46836;48.388;16.210;2023-07-20T03:12:23;9.60;;;6.20;;
45684;SDS011;46836;48.388;16.210;2023-07-20T03:14:50;8.60;;;6.10;;
45684;SDS011;46836;48.388;16.210;2023-07-20T03:17:18;9.77;;;6.60;;
45684;SDS011;46836;48.388;16.210;2023-07-20T03:19:47;9.80;;;6.47;;
45684;SDS011;46836;48.388;16.210;2023-07-20T03:22:14;7.20;;;6.50;;
45684;SDS011;46836;48.388;16.210;2023-07-20T03:24:41;8.17;;;6.10;;
45684;SDS011;46836;48.388;16.210;2023-07-20T03:27:08;7.97;;;5.60;;
45684;SDS011;46836;48.388;16.210;2023-07-20T03:29:35;8.03;;;6.07;;
45684;SDS011;46836;48.388;16.210;2023-07-20T03:32:02;9.27;;;6.80;;
45684;SDS011;46836;48.388;16.210;2023-07-20T03:34:29;8.77;;;6.80;;
45684;SDS011;46836;48.388;16.210;2023-07-20T03:36:56;9.10;;;6.43;;
45684;SDS011;46836;48.388;16.210;2023-07-20T03:39:23;8.07;;;6.07;;
45684;SDS011;46836;48.388;16.210;2023-07-20T03:41:50;7.73;;;6.50;;
45684;SDS011;46836;48.388;16.210;2023-07-20T03:44:17;6.40;;;5.80;;
45684;SDS011;46836;48.388;16.210;2023-07-20T03:46:44;7.17;;;5.93;;
45684;SDS011;46836;48.388;16.210;2023-07-20T03:49:12;7.60;;;6.50;;
45684;SDS011;46836;48.388;16.210;2023-07-20T03:51:39;8.40;;;5.63;;
45684;SDS011;46836;48.388;16.210;2023-07-20T03:54:06;9.13;;;6.50;;
45684;SDS011;46836;48.388;16.210;2023-07-20T03:56:34;7.87;;;6.37;;
45684;SDS011;46836;48.388;16.210;2023-07-20T03:59:02;8.13;;;5.70;;
45684;SDS011;46836;48.388;16.210;2023-07-20T04:01:29;6.67;;;6.07;;
45684;SDS011;46836;48.388;16.210;2023-07-20T04:03:56;8.20;;;6.40;;
45684;SDS011;46836;48.388;16.210;2023-07-20T04:06:24;8.97;;;7.13;;
45684;SDS011;46836;48.388;16.210;2023-07-20T04:08:51;7.20;;;6.60;;
45684;SDS011;46836;48.388;16.210;2023-07-20T04:11:18;7.13;;;6.17;;
45684;SDS011;46836;48.388;16.210;2023-07-20T04:13:45;7.10;;;5.77;;
45684;SDS011;46836;48.388;16.210;2023-07-20T04:16:12;7.90;;;5.63;;
45684;SDS011;46836;48.388;16.210;2023-07-20T04:18:39;7.07;;;6.00;;
45684;SDS011;46836;48.388;16.210;2023-07-20T04:21:07;6.47;;;5.80;;
45684;SDS011;46836;48.388;16.210;2023-07-20T04:23:35;7.37;;;6.20;;
45684;SDS011;46836;48.388;16.210;2023-07-20T04:26:03;9.20;;;6.20;;
45684;SDS011;46836;48.388;16.210;2023-07-20T04:28:30;6.17;;;5.50;;
45684;SDS011;46836;48.388;16.210;2023-07-20T04:31:09;6.63;;;5.87;;
45684;SDS011;46836;48.388;16.210;2023-07-20T04:33:38;8.60;;;6.37;;
45684;SDS011;46836;48.388;16.210;2023-07-20T04:36:05;7.17;;;5.60;;
45684;SDS011;46836;48.388;16.210;2023-07-20T04:38:33;6.33;;;5.37;;
45684;SDS011;46836;48.388;16.210;2023-07-20T04:41:00;7.70;;;5.40;;
45684;SDS011;46836;48.388;16.210;2023-07-20T04:43:28;7.20;;;5.73;;
45684;SDS011;46836;48.388;16.210;2023-07-20T04:45:56;5.77;;;5.20;;
45684;SDS011;46836;48.388;16.210;2023-07-20T04:48:23;9.07;;;5.30;;
45684;SDS011;46836;48.388;16.210;2023-07-20T04:50:50;7.50;;;5.30;;
45684;SDS011;46836;48.388;16.210;2023-07-20T04:53:18;7.93;;;5.93;;
45684;SDS011;46836;48.388;16.210;2023-07-20T04:55:50;6.30;;;5.60;;
45684;SDS011;46836;48.388;16.210;2023-07-20T04:58:19;7.53;;;5.73;;
45684;SDS011;46836;48.388;16.210;2023-07-20T05:00:50;9.33;;;5.70;;
45684;SDS011;46836;48.388;16.210;2023-07-20T05:03:18;5.50;;;5.00;;
45684;SDS011;46836;48.388;16.210;2023-07-20T05:05:46;10.17;;;5.50;;
45684;SDS011;46836;48.388;16.210;2023-07-20T05:08:16;6.20;;;5.60;;
45684;SDS011;46836;48.388;16.210;2023-07-20T05:10:43;7.33;;;5.63;;
45684;SDS011;46836;48.388;16.210;2023-07-20T05:13:10;8.17;;;5.60;;
45684;SDS011;46836;48.388;16.210;2023-07-20T05:15:37;6.20;;;5.60;;
45684;SDS011;46836;48.388;16.210;2023-07-20T05:18:04;6.50;;;5.40;;
45684;SDS011;46836;48.388;16.210;2023-07-20T05:20:32;10.90;;;5.67;;
45684;SDS011;46836;48.388;16.210;2023-07-20T05:23:00;6.20;;;5.60;;
45684;SDS011;46836;48.388;16.210;2023-07-20T05:25:28;6.97;;;5.50;;
45684;SDS011;46836;48.388;16.210;2023-07-20T05:27:56;9.00;;;5.33;;
45684;SDS011;46836;48.388;16.210;2023-07-20T05:30:24;9.13;;;5.50;;
45684;SDS011;46836;48.388;16.210;2023-07-20T05:32:51;10.63;;;5.20;;
45684;SDS011;46836;48.388;16.210;2023-07-20T05:35:19;5.83;;;5.33;;
45684;SDS011;46836;48.388;16.210;2023-07-20T05:37:46;7.93;;;6.30;;
45684;SDS011;46836;48.388;16.210;2023-07-20T05:40:14;8.60;;;4.90;;
45684;SDS011;46836;48.388;16.210;2023-07-20T05:42:46;5.67;;;4.87;;
45684;SDS011;46836;48.388;16.210;2023-07-20T05:45:15;10.83;;;5.00;;
45684;SDS011;46836;48.388;16.210;2023-07-20T05:47:42;9.67;;;4.23;;
45684;SDS011;46836;48.388;16.210;2023-07-20T05:50:09;11.47;;;4.93;;
45684;SDS011;46836;48.388;16.210;2023-07-20T05:52:37;11.60;;;5.40;;
45684;SDS011;46836;48.388;16.210;2023-07-20T05:55:05;7.27;;;5.40;;
45684;SDS011;46836;48.388;16.210;2023-07-20T05:57:34;5.40;;;4.90;;
45684;SDS011;46836;48.388;16.210;2023-07-20T06:00:02;5.57;;;4.50;;
45684;SDS011;46836;48.388;16.210;2023-07-20T06:02:30;6.13;;;4.10;;
45684;SDS011;46836;48.388;16.210;2023-07-20T06:04:59;14.77;;;5.53;;
45684;SDS011;46836;48.388;16.210;2023-07-20T06:07:26;4.80;;;4.40;;
45684;SDS011;46836;48.388;16.210;2023-07-20T06:09:54;6.03;;;4.70;;
45684;SDS011;46836;48.388;16.210;2023-07-20T06:12:21;5.77;;;5.10;;
45684;SDS011;46836;48.388;16.210;2023-07-20T06:14:48;6.70;;;5.07;;
45684;SDS011;46836;48.388;16.210;2023-07-20T06:17:15;9.80;;;5.20;;
45684;SDS011;46836;48.388;16.210;2023-07-20T06:19:42;10.00;;;4.93;;
45684;SDS011;46836;48.388;16.210;2023-07-20T06:22:09;8.47;;;4.40;;
45684;SDS011;46836;48.388;16.210;2023-07-20T06:24:36;5.20;;;4.67;;
45684;SDS011;46836;48.388;16.210;2023-07-20T06:27:03;6.23;;;4.30;;
45684;SDS011;46836;48.388;16.210;2023-07-20T06:29:32;6.87;;;4.43;;
45684;SDS011;46836;48.388;16.210;2023-07-20T06:31:59;4.70;;;4.20;;
45684;SDS011;46836;48.388;16.210;2023-07-20T06:34:26;9.60;;;3.80;;
45684;SDS011;46836;48.388;16.210;2023-07-20T06:36:53;6.00;;;4.77;;
45684;SDS011;46836;48.388;16.210;2023-07-20T06:39:20;6.83;;;4.53;;
45684;SDS011;46836;48.388;16.210;2023-07-20T06:41:51;12.33;;;5.10;;
45684;SDS011;46836;48.388;16.210;2023-07-20T06:44:21;6.70;;;4.50;;
45684;SDS011;46836;48.388;16.210;2023-07-20T06:46:49;5.03;;;4.43;;
45684;SDS011;46836;48.388;16.210;2023-07-20T06:49:26;5.57;;;4.27;;
45684;SDS011;46836;48.388;16.210;2023-07-20T06:51:54;8.00;;;4.80;;
45684;SDS011;46836;48.388;16.210;2023-07-20T06:54:21;5.93;;;4.40;;
45684;SDS011;46836;48.388;16.210;2023-07-20T06:56:49;6.37;;;4.50;;
45684;SDS011;46836;48.388;16.210;2023-07-20T06:59:20;7.73;;;3.97;;
45684;SDS011;46836;48.388;16.210;2023-07-20T07:01:48;8.63;;;4.70;;
45684;SDS011;46836;48.388;16.210;2023-07-20T07:04:15;5.50;;;4.50;;
45684;SDS011;46836;48.388;16.210;2023-07-20T07:06:42;7.97;;;4.57;;
45684;SDS011;46836;48.388;16.210;2023-07-20T07:09:10;4.57;;;4.07;;
45684;SDS011;46836;48.388;16.210;2023-07-20T07:11:37;5.00;;;4.10;;
45684;SDS011;46836;48.388;16.210;2023-07-20T07:14:04;4.83;;;4.33;;
45684;SDS011;46836;48.388;16.210;2023-07-20T07:16:31;5.80;;;4.23;;
45684;SDS011;46836;48.388;16.210;2023-07-20T07:19:04;6.23;;;4.30;;
45684;SDS011;46836;48.388;16.210;2023-07-20T07:21:32;6.30;;;4.10;;
45684;SDS011;46836;48.388;16.210;2023-07-20T07:23:59;6.47;;;3.90;;
45684;SDS011;46836;48.388;16.210;2023-07-20T07:26:26;3.97;;;3.57;;
45684;SDS011;46836;48.388;16.210;2023-07-20T07:28:53;5.70;;;4.30;;
45684;SDS011;46836;48.388;16.210;2023-07-20T07:31:20;6.17;;;3.90;;
45684;SDS011;46836;48.388;16.210;2023-07-20T07:33:47;6.37;;;4.10;;
45684;SDS011;46836;48.388;16.210;2023-07-20T07:36:14;5.27;;;4.40;;
45684;SDS011;46836;48.388;16.210;2023-07-20T07:38:42;4.50;;;3.60;;
45684;SDS011;46836;48.388;16.210;2023-07-20T07:41:12;6.83;;;4.30;;
45684;SDS011;46836;48.388;16.210;2023-07-20T07:43:40;6.33;;;3.40;;
45684;SDS011;46836;48.388;16.210;2023-07-20T07:46:07;4.30;;;3.90;;
45684;SDS011;46836;48.388;16.210;2023-07-20T07:48:34;4.40;;;4.00;;
45684;SDS011;46836;48.388;16.210;2023-07-20T07:51:01;6.00;;;4.03;;
45684;SDS011;46836;48.388;16.210;2023-07-20T07:53:28;5.20;;;4.03;;
45684;SDS011;46836;48.388;16.210;2023-07-20T07:55:55;5.80;;;3.80;;
45684;SDS011;46836;48.388;16.210;2023-07-20T07:58:24;4.23;;;3.83;;
45684;SDS011;46836;48.388;16.210;2023-07-20T08:00:51;6.13;;;3.73;;
45684;SDS011;46836;48.388;16.210;2023-07-20T08:03:18;3.57;;;3.27;;
45684;SDS011;46836;48.388;16.210;2023-07-20T08:05:45;6.30;;;3.70;;
45684;SDS011;46836;48.388;16.210;2023-07-20T08:08:13;8.10;;;4.00;;
45684;SDS011;46836;48.388;16.210;2023-07-20T08:10:40;6.63;;;4.20;;
45684;SDS011;46836;48.388;16.210;2023-07-20T08:13:07;6.43;;;3.40;;
45684;SDS011;46836;48.388;16.210;2023-07-20T08:15:34;4.53;;;3.50;;
45684;SDS011;46836;48.388;16.210;2023-07-20T08:18:01;5.00;;;3.70;;
45684;SDS011;46836;48.388;16.210;2023-07-20T08:20:29;4.83;;;3.10;;
45684;SDS011;46836;48.388;16.210;2023-07-20T08:22:58;4.10;;;3.70;;
45684;SDS011;46836;48.388;16.210;2023-07-20T08:25:26;3.63;;;3.33;;
45684;SDS011;46836;48.388;16.210;2023-07-20T08:27:53;3.93;;;3.53;;
45684;SDS011;46836;48.388;16.210;2023-07-20T08:30:22;6.17;;;3.80;;
45684;SDS011;46836;48.388;16.210;2023-07-20T08:32:50;4.43;;;3.60;;
45684;SDS011;46836;48.388;16.210;2023-07-20T08:35:17;5.63;;;3.90;;
45684;SDS011;46836;48.388;16.210;2023-07-20T08:37:48;4.40;;;3.33;;
45684;SDS011;46836;48.388;16.210;2023-07-20T08:40:16;4.40;;;3.97;;
45684;SDS011;46836;48.388;16.210;2023-07-20T08:42:43;6.13;;;3.70;;
45684;SDS011;46836;48.388;16.210;2023-07-20T08:45:11;4.10;;;3.80;;
45684;SDS011;46836;48.388;16.210;2023-07-20T08:47:40;4.30;;;3.80;;
45684;SDS011;46836;48.388;16.210;2023-07-20T08:50:10;5.73;;;3.90;;
45684;SDS011;46836;48.388;16.210;2023-07-20T08:52:39;5.57;;;3.47;;
45684;SDS011;46836;48.388;16.210;2023-07-20T08:55:06;4.20;;;3.10;;
45684;SDS011;46836;48.388;16.210;2023-07-20T08:57:33;5.57;;;3.50;;
45684;SDS011;46836;48.388;16.210;2023-07-20T09:00:02;4.20;;;3.80;;
45684;SDS011;46836;48.388;16.210;2023-07-20T09:02:37;6.07;;;3.23;;
45684;SDS011;46836;48.388;16.210;2023-07-20T09:05:09;21.63;;;3.57;;
45684;SDS011;46836;48.388;16.210;2023-07-20T09:07:37;3.67;;;3.27;;
45684;SDS011;46836;48.388;16.210;2023-07-20T09:10:05;8.67;;;3.77;;
45684;SDS011;46836;48.388;16.210;2023-07-20T09:12:38;6.03;;;3.50;;
45684;SDS011;46836;48.388;16.210;2023-07-20T09:15:08;4.63;;;3.43;;
45684;SDS011;46836;48.388;16.210;2023-07-20T09:17:36;4.70;;;3.20;;
45684;SDS011;46836;48.388;16.210;2023-07-20T09:20:07;5.97;;;3.80;;
45684;SDS011;46836;48.388;16.210;2023-07-20T09:22:38;4.10;;;3.37;;
45684;SDS011;46836;48.388;16.210;2023-07-20T09:27:41;6.03;;;3.80;;
45684;SDS011;46836;48.388;16.210;2023-07-20T09:30:09;5.80;;;3.47;;
45684;SDS011;46836;48.388;16.210;2023-07-20T09:32:47;5.80;;;3.63;;
45684;SDS011;46836;48.388;16.210;2023-07-20T09:35:18;4.90;;;3.87;;
45684;SDS011;46836;48.388;16.210;2023-07-20T09:37:53;4.50;;;3.63;;
45684;SDS011;46836;48.388;16.210;2023-07-20T09:40:27;3.93;;;3.53;;
45684;SDS011;46836;48.388;16.210;2023-07-20T09:42:58;3.37;;;3.07;;
45684;SDS011;46836;48.388;16.210;2023-07-20T09:45:33;6.13;;;3.30;;
45684;SDS011;46836;48.388;16.210;2023-07-20T09:48:06;7.17;;;3.80;;
45684;SDS011;46836;48.388;16.210;2023-07-20T09:50:41;4.27;;;3.87;;
45684;SDS011;46836;48.388;16.210;2023-07-20T09:53:19;6.03;;;3.57;;
45684;SDS011;46836;48.388;16.210;2023-07-20T09:55:47;7.67;;;3.40;;
45684;SDS011;46836;48.388;16.210;2023-07-20T09:58:15;5.40;;;3.50;;
45684;SDS011;46836;48.388;16.210;2023-07-20T10:00:43;5.70;;;3.33;;
45684;SDS011;46836;48.388;16.210;2023-07-20T10:03:20;4.07;;;3.57;;
45684;SDS011;46836;48.388;16.210;2023-07-20T10:05:54;3.87;;;3.17;;
45684;SDS011;46836;48.388;16.210;2023-07-20T10:08:27;4.20;;;3.70;;
45684;SDS011;46836;48.388;16.210;2023-07-20T10:11:00;3.43;;;3.13;;
45684;SDS011;46836;48.388;16.210;2023-07-20T10:13:29;9.93;;;3.63;;
45684;SDS011;46836;48.388;16.210;2023-07-20T10:16:02;4.50;;;3.80;;
45684;SDS011;46836;48.388;16.210;2023-07-20T10:21:29;4.90;;;3.30;;
45684;SDS011;46836;48.388;16.210;2023-07-20T10:23:59;4.70;;;3.47;;
45684;SDS011;46836;48.388;16.210;2023-07-20T10:26:28;8.13;;;3.50;;
45684;SDS011;46836;48.388;16.210;2023-07-20T10:28:55;6.57;;;3.60;;
45684;SDS011;46836;48.388;16.210;2023-07-20T10:31:24;4.37;;;3.27;;
45684;SDS011;46836;48.388;16.210;2023-07-20T10:33:58;3.60;;;3.20;;
45684;SDS011;46836;48.388;16.210;2023-07-20T10:36:27;6.07;;;3.07;;
45684;SDS011;46836;48.388;16.210;2023-07-20T10:38:57;3.03;;;2.83;;
45684;SDS011;46836;48.388;16.210;2023-07-20T10:41:35;3.60;;;3.30;;
45684;SDS011;46836;48.388;16.210;2023-07-20T10:44:07;5.80;;;3.20;;
45684;SDS011;46836;48.388;16.210;2023-07-20T10:49:07;4.33;;;2.70;;
45684;SDS011;46836;48.388;16.210;2023-07-20T10:51:42;5.10;;;3.10;;
45684;SDS011;46836;48.388;16.210;2023-07-20T10:56:44;4.50;;;2.50;;
45684;SDS011;46836;48.388;16.210;2023-07-20T11:01:56;2.67;;;2.43;;
45684;SDS011;46836;48.388;16.210;2023-07-20T11:04:39;9.43;;;2.80;;
45684;SDS011;46836;48.388;16.210;2023-07-20T11:07:14;6.53;;;2.50;;
45684;SDS011;46836;48.388;16.210;2023-07-20T11:09:44;2.53;;;2.30;;
45684;SDS011;46836;48.388;16.210;2023-07-20T11:12:17;5.80;;;2.83;;
45684;SDS011;46836;48.388;16.210;2023-07-20T11:14:54;5.37;;;2.30;;
45684;SDS011;46836;48.388;16.210;2023-07-20T11:17:31;3.50;;;2.33;;
45684;SDS011;46836;48.388;16.210;2023-07-20T11:19:59;2.93;;;2.47;;
45684;SDS011;46836;48.388;16.210;2023-07-20T11:22:32;6.33;;;3.13;;
45684;SDS011;46836;48.388;16.210;2023-07-20T11:25:00;4.13;;;3.10;;
45684;SDS011;46836;48.388;16.210;2023-07-20T11:27:27;7.23;;;3.00;;
45684;SDS011;46836;48.388;16.210;2023-07-20T11:29:55;4.83;;;2.70;;
45684;SDS011;46836;48.388;16.210;2023-07-20T11:32:23;4.60;;;3.03;;
45684;SDS011;46836;48.388;16.210;2023-07-20T11:34:51;4.90;;;3.23;;
45684;SDS011;46836;48.388;16.210;2023-07-20T11:37:19;3.90;;;3.50;;
45684;SDS011;46836;48.388;16.210;2023-07-20T11:39:46;4.07;;;2.87;;
45684;SDS011;46836;48.388;16.210;2023-07-20T11:42:13;4.53;;;3.37;;
45684;SDS011;46836;48.388;16.210;2023-07-20T11:44:44;3.50;;;2.60;;
45684;SDS011;46836;48.388;16.210;2023-07-20T11:47:11;3.10;;;2.80;;
45684;SDS011;46836;48.388;16.210;2023-07-20T11:49:40;2.60;;;2.40;;
45684;SDS011;46836;48.388;16.210;2023-07-20T11:52:13;5.30;;;3.07;;
45684;SDS011;46836;48.388;16.210;2023-07-20T11:54:42;5.40;;;2.80;;
45684;SDS011;46836;48.388;16.210;2023-07-20T11:57:20;4.70;;;2.83;;
45684;SDS011;46836;48.388;16.210;2023-07-20T11:59:54;11.60;;;2.80;;
45684;SDS011;46836;48.388;16.210;2023-07-20T12:02:26;4.50;;;2.63;;
45684;SDS011;46836;48.388;16.210;2023-07-20T12:04:54;2.50;;;2.30;;
45684;SDS011;46836;48.388;16.210;2023-07-20T12:07:22;5.50;;;2.70;;
45684;SDS011;46836;48.388;16.210;2023-07-20T12:10:09;8.10;;;4.30;;
45684;SDS011;46836;48.388;16.210;2023-07-20T12:12:39;2.70;;;2.50;;
45684;SDS011;46836;48.388;16.210;2023-07-20T12:15:12;2.33;;;2.03;;
45684;SDS011;46836;48.388;16.210;2023-07-20T12:17:49;3.73;;;2.60;;
45684;SDS011;46836;48.388;16.210;2023-07-20T12:20:25;4.57;;;2.67;;
45684;SDS011;46836;48.388;16.210;2023-07-20T12:22:57;2.90;;;2.00;;
45684;SDS011;46836;48.388;16.210;2023-07-20T12:25:33;4.80;;;2.33;;
45684;SDS011;46836;48.388;16.210;2023-07-20T12:28:05;4.17;;;3.07;;
45684;SDS011;46836;48.388;16.210;2023-07-20T12:30:39;3.07;;;2.57;;
45684;SDS011;46836;48.388;16.210;2023-07-20T12:33:08;2.90;;;2.43;;
45684;SDS011;46836;48.388;16.210;2023-07-20T12:35:35;4.10;;;2.30;;
45684;SDS011;46836;48.388;16.210;2023-07-20T12:38:03;5.43;;;2.43;;
45684;SDS011;46836;48.388;16.210;2023-07-20T12:40:31;3.07;;;2.30;;
45684;SDS011;46836;48.388;16.210;2023-07-20T12:42:58;5.10;;;2.20;;
45684;SDS011;46836;48.388;16.210;2023-07-20T12:45:25;3.47;;;2.40;;
45684;SDS011;46836;48.388;16.210;2023-07-20T12:47:53;4.23;;;2.50;;
45684;SDS011;46836;48.388;16.210;2023-07-20T12:50:20;2.80;;;2.60;;
45684;SDS011;46836;48.388;16.210;2023-07-20T12:52:47;3.53;;;2.40;;
45684;SDS011;46836;48.388;16.210;2023-07-20T12:55:14;4.60;;;2.90;;
45684;SDS011;46836;48.388;16.210;2023-07-20T12:57:41;2.57;;;2.37;;
45684;SDS011;46836;48.388;16.210;2023-07-20T13:00:10;4.30;;;2.50;;
45684;SDS011;46836;48.388;16.210;2023-07-20T13:02:38;4.20;;;2.63;;
45684;SDS011;46836;48.388;16.210;2023-07-20T13:05:05;3.00;;;2.53;;
45684;SDS011;46836;48.388;16.210;2023-07-20T13:07:33;5.13;;;3.00;;
45684;SDS011;46836;48.388;16.210;2023-07-20T13:10:05;3.23;;;2.93;;
45684;SDS011;46836;48.388;16.210;2023-07-20T13:12:33;3.20;;;2.90;;
45684;SDS011;46836;48.388;16.210;2023-07-20T13:15:02;3.27;;;2.83;;
45684;SDS011;46836;48.388;16.210;2023-07-20T13:17:33;2.93;;;2.53;;
45684;SDS011;46836;48.388;16.210;2023-07-20T13:20:07;3.67;;;3.27;;
45684;SDS011;46836;48.388;16.210;2023-07-20T13:22:40;3.17;;;2.87;;
45684;SDS011;46836;48.388;16.210;2023-07-20T13:25:07;4.30;;;2.67;;
45684;SDS011;46836;48.388;16.210;2023-07-20T13:27:36;5.10;;;3.10;;
45684;SDS011;46836;48.388;16.210;2023-07-20T13:30:04;3.73;;;3.13;;
45684;SDS011;46836;48.388;16.210;2023-07-20T13:32:37;4.70;;;3.20;;
45684;SDS011;46836;48.388;16.210;2023-07-20T13:35:09;6.43;;;3.60;;
45684;SDS011;46836;48.388;16.210;2023-07-20T13:37:37;3.80;;;2.87;;
45684;SDS011;46836;48.388;16.210;2023-07-20T13:40:05;3.13;;;2.83;;
45684;SDS011;46836;48.388;16.210;2023-07-20T13:42:32;3.27;;;2.80;;
45684;SDS011;46836;48.388;16.210;2023-07-20T13:45:00;3.30;;;3.00;;
45684;SDS011;46836;48.388;16.210;2023-07-20T13:47:29;3.70;;;2.93;;
45684;SDS011;46836;48.388;16.210;2023-07-20T13:49:56;5.43;;;2.97;;
45684;SDS011;46836;48.388;16.210;2023-07-20T13:52:26;4.93;;;2.70;;
45684;SDS011;46836;48.388;16.210;2023-07-20T13:54:56;4.00;;;2.80;;
45684;SDS011;46836;48.388;16.210;2023-07-20T13:57:23;3.47;;;2.97;;
45684;SDS011;46836;48.388;16.210;2023-07-20T13:59:53;3.50;;;3.20;;
45684;SDS011;46836;48.388;16.210;2023-07-20T14:02:20;2.70;;;2.50;;
45684;SDS011;46836;48.388;16.210;2023-07-20T14:04:50;3.70;;;2.60;;
45684;SDS011;46836;48.388;16.210;2023-07-20T14:07:37;3.40;;;3.10;;
45684;SDS011;46836;48.388;16.210;2023-07-20T14:10:06;3.40;;;3.03;;
45684;SDS011;46836;48.388;16.210;2023-07-20T14:12:36;3.50;;;2.63;;
45684;SDS011;46836;48.388;16.210;2023-07-20T14:15:04;4.13;;;2.73;;
45684;SDS011;46836;48.388;16.210;2023-07-20T14:17:31;3.13;;;2.60;;
45684;SDS011;46836;48.388;16.210;2023-07-20T14:19:59;6.63;;;2.80;;
45684;SDS011;46836;48.388;16.210;2023-07-20T14:22:26;4.50;;;3.10;;
45684;SDS011;46836;48.388;16.210;2023-07-20T14:24:53;3.23;;;2.50;;
45684;SDS011;46836;48.388;16.210;2023-07-20T14:27:21;4.03;;;2.80;;
45684;SDS011;46836;48.388;16.210;2023-07-20T14:29:48;3.20;;;3.00;;
45684;SDS011;46836;48.388;16.210;2023-07-20T14:32:15;3.13;;;2.87;;
45684;SDS011;46836;48.388;16.210;2023-07-20T14:34:42;4.43;;;3.13;;
45684;SDS011;46836;48.388;16.210;2023-07-20T14:37:10;6.73;;;2.70;;
45684;SDS011;46836;48.388;16.210;2023-07-20T14:39:40;4.03;;;3.17;;
45684;SDS011;46836;48.388;16.210;2023-07-20T14:42:07;3.07;;;2.67;;
45684;SDS011;46836;48.388;16.210;2023-07-20T14:44:34;2.83;;;2.63;;
45684;SDS011;46836;48.388;16.210;2023-07-20T14:47:03;4.47;;;2.40;;
45684;SDS011;46836;48.388;16.210;2023-07-20T14:49:40;3.10;;;2.60;;
45684;SDS011;46836;48.388;16.210;2023-07-20T14:52:07;3.20;;;2.80;;
45684;SDS011;46836;48.388;16.210;2023-07-20T14:54:37;2.70;;;2.50;;
45684;SDS011;46836;48.388;16.210;2023-07-20T14:57:05;2.50;;;2.30;;
45684;SDS011;46836;48.388;16.210;2023-07-20T14:59:40;3.17;;;2.40;;
45684;SDS011;46836;48.388;16.210;2023-07-20T15:02:08;4.67;;;2.50;;